<?xml version="1.0" encoding="UTF-8" standalone="no" ?>
<gpx xmlns="http://www.topografix.com/GPX/1/1" xmlns:xsi="http://www.w3.org/2001/XMLSchema-instance" xsi:schemaLocation="http://www.topografix.com/GPX/1/1 http://www.topografix.com/GPX/1/1/gpx.xsd" version="1.1" creator="VisuGPX - https://www.visugpx.com">
  <metadata>
    <name>Tiffauges_Colardiere21.4km</name>
    <desc><![CDATA[gnerando J2 23/03/23 21.4km]]></desc>
  </metadata>
  <trk>
    <name><![CDATA[la colardière-16076218]]></name>
    <extensions>
      <line xmlns="http://www.topografix.com/GPX/gpx_style/0/2">
        <color>0000FF</color>
        <width>4</width>
      </line>
    </extensions>
    <trkseg>
      <trkpt lat="47.01784" lon="-1.11376">
        <ele>52</ele>
        <time>2023-03-20T07:18:08Z</time>
      </trkpt>
      <trkpt lat="47.0173" lon="-1.11358">
        <ele>54</ele>
        <time>2023-03-20T07:19:22Z</time>
      </trkpt>
      <trkpt lat="47.01675" lon="-1.11318">
        <ele>55</ele>
        <time>2023-03-20T07:20:44Z</time>
      </trkpt>
      <trkpt lat="47.01663" lon="-1.11312">
        <ele>55</ele>
        <time>2023-03-20T07:21:01Z</time>
      </trkpt>
      <trkpt lat="47.01652" lon="-1.11314">
        <ele>55</ele>
        <time>2023-03-20T07:21:16Z</time>
      </trkpt>
      <trkpt lat="47.01612" lon="-1.11334">
        <ele>58</ele>
        <time>2023-03-20T07:22:12Z</time>
      </trkpt>
      <trkpt lat="47.01577" lon="-1.11313">
        <ele>57</ele>
        <time>2023-03-20T07:23:02Z</time>
      </trkpt>
      <trkpt lat="47.0158" lon="-1.11296">
        <ele>55</ele>
        <time>2023-03-20T07:23:18Z</time>
      </trkpt>
      <trkpt lat="47.01595" lon="-1.11221">
        <ele>50</ele>
        <time>2023-03-20T07:24:29Z</time>
      </trkpt>
      <trkpt lat="47.01613" lon="-1.11056">
        <ele>52</ele>
        <time>2023-03-20T07:27:02Z</time>
      </trkpt>
      <trkpt lat="47.01624" lon="-1.11015">
        <ele>54</ele>
        <time>2023-03-20T07:27:42Z</time>
      </trkpt>
      <trkpt lat="47.01635" lon="-1.10986">
        <ele>55</ele>
        <time>2023-03-20T07:28:12Z</time>
      </trkpt>
      <trkpt lat="47.01652" lon="-1.11002">
        <ele>57</ele>
        <time>2023-03-20T07:28:39Z</time>
      </trkpt>
      <trkpt lat="47.01649" lon="-1.11055">
        <ele>55</ele>
        <time>2023-03-20T07:29:27Z</time>
      </trkpt>
      <trkpt lat="47.01649" lon="-1.11082">
        <ele>54</ele>
        <time>2023-03-20T07:29:52Z</time>
      </trkpt>
      <trkpt lat="47.01653" lon="-1.11097">
        <ele>54</ele>
        <time>2023-03-20T07:30:06Z</time>
      </trkpt>
      <trkpt lat="47.01687" lon="-1.11187">
        <ele>53</ele>
        <time>2023-03-20T07:31:40Z</time>
      </trkpt>
      <trkpt lat="47.01769" lon="-1.11264">
        <ele>52</ele>
        <time>2023-03-20T07:33:50Z</time>
      </trkpt>
      <trkpt lat="47.01785" lon="-1.11273">
        <ele>53</ele>
        <time>2023-03-20T07:34:13Z</time>
      </trkpt>
      <trkpt lat="47.01847" lon="-1.11295">
        <ele>56</ele>
        <time>2023-03-20T07:35:38Z</time>
      </trkpt>
      <trkpt lat="47.01861" lon="-1.11306">
        <ele>56</ele>
        <time>2023-03-20T07:35:59Z</time>
      </trkpt>
      <trkpt lat="47.01893" lon="-1.11399">
        <ele>53</ele>
        <time>2023-03-20T07:37:34Z</time>
      </trkpt>
      <trkpt lat="47.01934" lon="-1.11468">
        <ele>52</ele>
        <time>2023-03-20T07:38:57Z</time>
      </trkpt>
      <trkpt lat="47.01965" lon="-1.1151">
        <ele>53</ele>
        <time>2023-03-20T07:39:53Z</time>
      </trkpt>
      <trkpt lat="47.01987" lon="-1.11554">
        <ele>52</ele>
        <time>2023-03-20T07:40:43Z</time>
      </trkpt>
      <trkpt lat="47.01994" lon="-1.11567">
        <ele>51</ele>
        <time>2023-03-20T07:40:58Z</time>
      </trkpt>
      <trkpt lat="47.02037" lon="-1.11613">
        <ele>52</ele>
        <time>2023-03-20T07:42:09Z</time>
      </trkpt>
      <trkpt lat="47.02048" lon="-1.11624">
        <ele>52</ele>
        <time>2023-03-20T07:42:27Z</time>
      </trkpt>
      <trkpt lat="47.02066" lon="-1.11635">
        <ele>53</ele>
        <time>2023-03-20T07:42:53Z</time>
      </trkpt>
      <trkpt lat="47.02081" lon="-1.11661">
        <ele>52</ele>
        <time>2023-03-20T07:43:24Z</time>
      </trkpt>
      <trkpt lat="47.02085" lon="-1.11675">
        <ele>52</ele>
        <time>2023-03-20T07:43:38Z</time>
      </trkpt>
      <trkpt lat="47.02092" lon="-1.11724">
        <ele>52</ele>
        <time>2023-03-20T07:44:23Z</time>
      </trkpt>
      <trkpt lat="47.02103" lon="-1.11792">
        <ele>52</ele>
        <time>2023-03-20T07:45:27Z</time>
      </trkpt>
      <trkpt lat="47.02109" lon="-1.11812">
        <ele>52</ele>
        <time>2023-03-20T07:45:47Z</time>
      </trkpt>
      <trkpt lat="47.02137" lon="-1.11864">
        <ele>54</ele>
        <time>2023-03-20T07:46:47Z</time>
      </trkpt>
      <trkpt lat="47.02144" lon="-1.11886">
        <ele>54</ele>
        <time>2023-03-20T07:47:09Z</time>
      </trkpt>
      <trkpt lat="47.0215" lon="-1.11942">
        <ele>54</ele>
        <time>2023-03-20T07:48:01Z</time>
      </trkpt>
      <trkpt lat="47.02156" lon="-1.11986">
        <ele>52</ele>
        <time>2023-03-20T07:48:42Z</time>
      </trkpt>
      <trkpt lat="47.02187" lon="-1.12232">
        <ele>51</ele>
        <time>2023-03-20T07:52:29Z</time>
      </trkpt>
      <trkpt lat="47.02194" lon="-1.12267">
        <ele>53</ele>
        <time>2023-03-20T07:53:02Z</time>
      </trkpt>
      <trkpt lat="47.02197" lon="-1.12287">
        <ele>54</ele>
        <time>2023-03-20T07:53:21Z</time>
      </trkpt>
      <trkpt lat="47.02201" lon="-1.12359">
        <ele>54</ele>
        <time>2023-03-20T07:54:27Z</time>
      </trkpt>
      <trkpt lat="47.02202" lon="-1.12436">
        <ele>52</ele>
        <time>2023-03-20T07:55:37Z</time>
      </trkpt>
      <trkpt lat="47.02212" lon="-1.12483">
        <ele>53</ele>
        <time>2023-03-20T07:56:21Z</time>
      </trkpt>
      <trkpt lat="47.02218" lon="-1.12501">
        <ele>53</ele>
        <time>2023-03-20T07:56:40Z</time>
      </trkpt>
      <trkpt lat="47.02237" lon="-1.12585">
        <ele>52</ele>
        <time>2023-03-20T07:58:00Z</time>
      </trkpt>
      <trkpt lat="47.02262" lon="-1.12653">
        <ele>49</ele>
        <time>2023-03-20T07:59:11Z</time>
      </trkpt>
      <trkpt lat="47.02271" lon="-1.12668">
        <ele>49</ele>
        <time>2023-03-20T07:59:29Z</time>
      </trkpt>
      <trkpt lat="47.02285" lon="-1.12685">
        <ele>49</ele>
        <time>2023-03-20T07:59:53Z</time>
      </trkpt>
      <trkpt lat="47.02315" lon="-1.12708">
        <ele>50</ele>
        <time>2023-03-20T08:00:38Z</time>
      </trkpt>
      <trkpt lat="47.02365" lon="-1.12736">
        <ele>50</ele>
        <time>2023-03-20T08:01:50Z</time>
      </trkpt>
      <trkpt lat="47.02374" lon="-1.12741">
        <ele>50</ele>
        <time>2023-03-20T08:02:02Z</time>
      </trkpt>
      <trkpt lat="47.02383" lon="-1.12751">
        <ele>50</ele>
        <time>2023-03-20T08:02:17Z</time>
      </trkpt>
      <trkpt lat="47.02395" lon="-1.12775">
        <ele>50</ele>
        <time>2023-03-20T08:02:45Z</time>
      </trkpt>
      <trkpt lat="47.02397" lon="-1.12785">
        <ele>50</ele>
        <time>2023-03-20T08:02:54Z</time>
      </trkpt>
      <trkpt lat="47.02403" lon="-1.1284">
        <ele>50</ele>
        <time>2023-03-20T08:03:45Z</time>
      </trkpt>
      <trkpt lat="47.02403" lon="-1.12856">
        <ele>50</ele>
        <time>2023-03-20T08:03:59Z</time>
      </trkpt>
      <trkpt lat="47.02399" lon="-1.12874">
        <ele>50</ele>
        <time>2023-03-20T08:04:16Z</time>
      </trkpt>
      <trkpt lat="47.02408" lon="-1.12909">
        <ele>51</ele>
        <time>2023-03-20T08:04:50Z</time>
      </trkpt>
      <trkpt lat="47.02411" lon="-1.1294">
        <ele>53</ele>
        <time>2023-03-20T08:05:19Z</time>
      </trkpt>
      <trkpt lat="47.0241" lon="-1.12949">
        <ele>53</ele>
        <time>2023-03-20T08:05:27Z</time>
      </trkpt>
      <trkpt lat="47.02403" lon="-1.12984">
        <ele>54</ele>
        <time>2023-03-20T08:06:00Z</time>
      </trkpt>
      <trkpt lat="47.02393" lon="-1.13015">
        <ele>55</ele>
        <time>2023-03-20T08:06:32Z</time>
      </trkpt>
      <trkpt lat="47.02381" lon="-1.13038">
        <ele>55</ele>
        <time>2023-03-20T08:06:58Z</time>
      </trkpt>
      <trkpt lat="47.02367" lon="-1.1307">
        <ele>56</ele>
        <time>2023-03-20T08:07:33Z</time>
      </trkpt>
      <trkpt lat="47.02364" lon="-1.13084">
        <ele>56</ele>
        <time>2023-03-20T08:07:46Z</time>
      </trkpt>
      <trkpt lat="47.02366" lon="-1.13116">
        <ele>57</ele>
        <time>2023-03-20T08:08:15Z</time>
      </trkpt>
      <trkpt lat="47.02365" lon="-1.13136">
        <ele>58</ele>
        <time>2023-03-20T08:08:33Z</time>
      </trkpt>
      <trkpt lat="47.02357" lon="-1.13171">
        <ele>57</ele>
        <time>2023-03-20T08:09:07Z</time>
      </trkpt>
      <trkpt lat="47.02352" lon="-1.13192">
        <ele>55</ele>
        <time>2023-03-20T08:09:27Z</time>
      </trkpt>
      <trkpt lat="47.0235" lon="-1.13222">
        <ele>53</ele>
        <time>2023-03-20T08:09:55Z</time>
      </trkpt>
      <trkpt lat="47.02356" lon="-1.13236">
        <ele>53</ele>
        <time>2023-03-20T08:10:10Z</time>
      </trkpt>
      <trkpt lat="47.02398" lon="-1.13297">
        <ele>55</ele>
        <time>2023-03-20T08:11:29Z</time>
      </trkpt>
      <trkpt lat="47.02412" lon="-1.13312">
        <ele>56</ele>
        <time>2023-03-20T08:11:52Z</time>
      </trkpt>
      <trkpt lat="47.0242" lon="-1.13318">
        <ele>57</ele>
        <time>2023-03-20T08:12:04Z</time>
      </trkpt>
      <trkpt lat="47.02427" lon="-1.13331">
        <ele>57</ele>
        <time>2023-03-20T08:12:19Z</time>
      </trkpt>
      <trkpt lat="47.02431" lon="-1.13349">
        <ele>56</ele>
        <time>2023-03-20T08:12:36Z</time>
      </trkpt>
      <trkpt lat="47.02437" lon="-1.1339">
        <ele>54</ele>
        <time>2023-03-20T08:13:14Z</time>
      </trkpt>
      <trkpt lat="47.02441" lon="-1.13403">
        <ele>54</ele>
        <time>2023-03-20T08:13:27Z</time>
      </trkpt>
      <trkpt lat="47.02445" lon="-1.13413">
        <ele>54</ele>
        <time>2023-03-20T08:13:38Z</time>
      </trkpt>
      <trkpt lat="47.02466" lon="-1.13445">
        <ele>56</ele>
        <time>2023-03-20T08:14:18Z</time>
      </trkpt>
      <trkpt lat="47.02472" lon="-1.13461">
        <ele>56</ele>
        <time>2023-03-20T08:14:35Z</time>
      </trkpt>
      <trkpt lat="47.02474" lon="-1.13483">
        <ele>54</ele>
        <time>2023-03-20T08:14:55Z</time>
      </trkpt>
      <trkpt lat="47.02474" lon="-1.1351">
        <ele>52</ele>
        <time>2023-03-20T08:15:19Z</time>
      </trkpt>
      <trkpt lat="47.02477" lon="-1.13521">
        <ele>52</ele>
        <time>2023-03-20T08:15:30Z</time>
      </trkpt>
      <trkpt lat="47.02481" lon="-1.13527">
        <ele>52</ele>
        <time>2023-03-20T08:15:38Z</time>
      </trkpt>
      <trkpt lat="47.02505" lon="-1.13546">
        <ele>54</ele>
        <time>2023-03-20T08:16:14Z</time>
      </trkpt>
      <trkpt lat="47.02511" lon="-1.13554">
        <ele>55</ele>
        <time>2023-03-20T08:16:25Z</time>
      </trkpt>
      <trkpt lat="47.02533" lon="-1.13602">
        <ele>56</ele>
        <time>2023-03-20T08:17:18Z</time>
      </trkpt>
      <trkpt lat="47.02544" lon="-1.13619">
        <ele>57</ele>
        <time>2023-03-20T08:17:39Z</time>
      </trkpt>
      <trkpt lat="47.02561" lon="-1.13639">
        <ele>57</ele>
        <time>2023-03-20T08:18:08Z</time>
      </trkpt>
      <trkpt lat="47.02576" lon="-1.13703">
        <ele>53</ele>
        <time>2023-03-20T08:19:10Z</time>
      </trkpt>
      <trkpt lat="47.02605" lon="-1.13787">
        <ele>51</ele>
        <time>2023-03-20T08:20:35Z</time>
      </trkpt>
      <trkpt lat="47.02604" lon="-1.13802">
        <ele>50</ele>
        <time>2023-03-20T08:20:49Z</time>
      </trkpt>
      <trkpt lat="47.02658" lon="-1.13975">
        <ele>53</ele>
        <time>2023-03-20T08:23:42Z</time>
      </trkpt>
      <trkpt lat="47.02664" lon="-1.13999">
        <ele>54</ele>
        <time>2023-03-20T08:24:05Z</time>
      </trkpt>
      <trkpt lat="47.02668" lon="-1.1403">
        <ele>53</ele>
        <time>2023-03-20T08:24:34Z</time>
      </trkpt>
      <trkpt lat="47.02672" lon="-1.14041">
        <ele>53</ele>
        <time>2023-03-20T08:24:45Z</time>
      </trkpt>
      <trkpt lat="47.02681" lon="-1.14044">
        <ele>55</ele>
        <time>2023-03-20T08:24:58Z</time>
      </trkpt>
      <trkpt lat="47.02721" lon="-1.14228">
        <ele>54</ele>
        <time>2023-03-20T08:27:53Z</time>
      </trkpt>
      <trkpt lat="47.02725" lon="-1.14246">
        <ele>54</ele>
        <time>2023-03-20T08:28:11Z</time>
      </trkpt>
      <trkpt lat="47.02726" lon="-1.14262">
        <ele>54</ele>
        <time>2023-03-20T08:28:25Z</time>
      </trkpt>
      <trkpt lat="47.02725" lon="-1.14367">
        <ele>51</ele>
        <time>2023-03-20T08:30:01Z</time>
      </trkpt>
      <trkpt lat="47.02726" lon="-1.14386">
        <ele>50</ele>
        <time>2023-03-20T08:30:18Z</time>
      </trkpt>
      <trkpt lat="47.02729" lon="-1.14402">
        <ele>50</ele>
        <time>2023-03-20T08:30:33Z</time>
      </trkpt>
      <trkpt lat="47.02733" lon="-1.14418">
        <ele>50</ele>
        <time>2023-03-20T08:30:49Z</time>
      </trkpt>
      <trkpt lat="47.02743" lon="-1.14451">
        <ele>49</ele>
        <time>2023-03-20T08:31:21Z</time>
      </trkpt>
      <trkpt lat="47.02752" lon="-1.14474">
        <ele>49</ele>
        <time>2023-03-20T08:31:46Z</time>
      </trkpt>
      <trkpt lat="47.0286" lon="-1.1463">
        <ele>49</ele>
        <time>2023-03-20T08:35:08Z</time>
      </trkpt>
      <trkpt lat="47.02917" lon="-1.14691">
        <ele>49</ele>
        <time>2023-03-20T08:36:42Z</time>
      </trkpt>
      <trkpt lat="47.02929" lon="-1.14709">
        <ele>48</ele>
        <time>2023-03-20T08:37:05Z</time>
      </trkpt>
      <trkpt lat="47.02936" lon="-1.14722">
        <ele>47</ele>
        <time>2023-03-20T08:37:20Z</time>
      </trkpt>
      <trkpt lat="47.02939" lon="-1.14728">
        <ele>47</ele>
        <time>2023-03-20T08:37:27Z</time>
      </trkpt>
      <trkpt lat="47.02968" lon="-1.14727">
        <ele>48</ele>
        <time>2023-03-20T08:38:05Z</time>
      </trkpt>
      <trkpt lat="47.02992" lon="-1.14728">
        <ele>49</ele>
        <time>2023-03-20T08:38:38Z</time>
      </trkpt>
      <trkpt lat="47.02998" lon="-1.14732">
        <ele>50</ele>
        <time>2023-03-20T08:38:46Z</time>
      </trkpt>
      <trkpt lat="47.03002" lon="-1.14754">
        <ele>50</ele>
        <time>2023-03-20T08:39:07Z</time>
      </trkpt>
      <trkpt lat="47.03003" lon="-1.14792">
        <ele>50</ele>
        <time>2023-03-20T08:39:42Z</time>
      </trkpt>
      <trkpt lat="47.03009" lon="-1.148">
        <ele>51</ele>
        <time>2023-03-20T08:39:52Z</time>
      </trkpt>
      <trkpt lat="47.03011" lon="-1.14812">
        <ele>52</ele>
        <time>2023-03-20T08:40:04Z</time>
      </trkpt>
      <trkpt lat="47.03011" lon="-1.14836">
        <ele>51</ele>
        <time>2023-03-20T08:40:25Z</time>
      </trkpt>
      <trkpt lat="47.03012" lon="-1.14853">
        <ele>51</ele>
        <time>2023-03-20T08:40:41Z</time>
      </trkpt>
      <trkpt lat="47.03017" lon="-1.1488">
        <ele>52</ele>
        <time>2023-03-20T08:41:06Z</time>
      </trkpt>
      <trkpt lat="47.03039" lon="-1.14936">
        <ele>54</ele>
        <time>2023-03-20T08:42:05Z</time>
      </trkpt>
      <trkpt lat="47.03048" lon="-1.14948">
        <ele>55</ele>
        <time>2023-03-20T08:42:21Z</time>
      </trkpt>
      <trkpt lat="47.03061" lon="-1.1496">
        <ele>57</ele>
        <time>2023-03-20T08:42:42Z</time>
      </trkpt>
      <trkpt lat="47.03078" lon="-1.14963">
        <ele>60</ele>
        <time>2023-03-20T08:43:05Z</time>
      </trkpt>
      <trkpt lat="47.03113" lon="-1.14961">
        <ele>65</ele>
        <time>2023-03-20T08:43:52Z</time>
      </trkpt>
      <trkpt lat="47.03127" lon="-1.14963">
        <ele>67</ele>
        <time>2023-03-20T08:44:10Z</time>
      </trkpt>
      <trkpt lat="47.03151" lon="-1.14971">
        <ele>70</ele>
        <time>2023-03-20T08:44:43Z</time>
      </trkpt>
      <trkpt lat="47.0318" lon="-1.14992">
        <ele>72</ele>
        <time>2023-03-20T08:45:26Z</time>
      </trkpt>
      <trkpt lat="47.03191" lon="-1.15003">
        <ele>73</ele>
        <time>2023-03-20T08:45:44Z</time>
      </trkpt>
      <trkpt lat="47.03213" lon="-1.15026">
        <ele>75</ele>
        <time>2023-03-20T08:46:20Z</time>
      </trkpt>
      <trkpt lat="47.03223" lon="-1.15057">
        <ele>76</ele>
        <time>2023-03-20T08:46:51Z</time>
      </trkpt>
      <trkpt lat="47.03231" lon="-1.1509">
        <ele>76</ele>
        <time>2023-03-20T08:47:23Z</time>
      </trkpt>
      <trkpt lat="47.03245" lon="-1.15179">
        <ele>78</ele>
        <time>2023-03-20T08:48:46Z</time>
      </trkpt>
      <trkpt lat="47.03262" lon="-1.15254">
        <ele>77</ele>
        <time>2023-03-20T08:49:58Z</time>
      </trkpt>
      <trkpt lat="47.03266" lon="-1.15272">
        <ele>76</ele>
        <time>2023-03-20T08:50:15Z</time>
      </trkpt>
      <trkpt lat="47.03269" lon="-1.15309">
        <ele>74</ele>
        <time>2023-03-20T08:50:49Z</time>
      </trkpt>
      <trkpt lat="47.03273" lon="-1.15333">
        <ele>73</ele>
        <time>2023-03-20T08:51:12Z</time>
      </trkpt>
      <trkpt lat="47.03279" lon="-1.15355">
        <ele>72</ele>
        <time>2023-03-20T08:51:33Z</time>
      </trkpt>
      <trkpt lat="47.03285" lon="-1.15376">
        <ele>71</ele>
        <time>2023-03-20T08:51:54Z</time>
      </trkpt>
      <trkpt lat="47.03308" lon="-1.1543">
        <ele>71</ele>
        <time>2023-03-20T08:52:52Z</time>
      </trkpt>
      <trkpt lat="47.0336" lon="-1.15561">
        <ele>67</ele>
        <time>2023-03-20T08:55:10Z</time>
      </trkpt>
      <trkpt lat="47.0336" lon="-1.15561">
        <ele>67</ele>
        <time>2023-03-20T08:55:10Z</time>
      </trkpt>
      <trkpt lat="47.03368" lon="-1.15574">
        <ele>67</ele>
        <time>2023-03-20T08:55:26Z</time>
      </trkpt>
      <trkpt lat="47.03368" lon="-1.15574">
        <ele>67</ele>
        <time>2023-03-20T08:55:26Z</time>
      </trkpt>
      <trkpt lat="47.03389" lon="-1.15599">
        <ele>66</ele>
        <time>2023-03-20T08:56:02Z</time>
      </trkpt>
      <trkpt lat="47.0341" lon="-1.15616">
        <ele>68</ele>
        <time>2023-03-20T08:56:34Z</time>
      </trkpt>
      <trkpt lat="47.03421" lon="-1.15643">
        <ele>67</ele>
        <time>2023-03-20T08:57:02Z</time>
      </trkpt>
      <trkpt lat="47.03426" lon="-1.15692">
        <ele>64</ele>
        <time>2023-03-20T08:57:48Z</time>
      </trkpt>
      <trkpt lat="47.03427" lon="-1.15716">
        <ele>63</ele>
        <time>2023-03-20T08:58:09Z</time>
      </trkpt>
      <trkpt lat="47.03438" lon="-1.15751">
        <ele>64</ele>
        <time>2023-03-20T08:58:44Z</time>
      </trkpt>
      <trkpt lat="47.03478" lon="-1.15811">
        <ele>72</ele>
        <time>2023-03-20T09:00:01Z</time>
      </trkpt>
      <trkpt lat="47.03494" lon="-1.15829">
        <ele>75</ele>
        <time>2023-03-20T09:00:28Z</time>
      </trkpt>
      <trkpt lat="47.03495" lon="-1.15831">
        <ele>75</ele>
        <time>2023-03-20T09:00:30Z</time>
      </trkpt>
      <trkpt lat="47.03512" lon="-1.15844">
        <ele>75</ele>
        <time>2023-03-20T09:00:56Z</time>
      </trkpt>
      <trkpt lat="47.03554" lon="-1.15861">
        <ele>72</ele>
        <time>2023-03-20T09:01:54Z</time>
      </trkpt>
      <trkpt lat="47.03573" lon="-1.15865">
        <ele>71</ele>
        <time>2023-03-20T09:02:19Z</time>
      </trkpt>
      <trkpt lat="47.03609" lon="-1.15866">
        <ele>70</ele>
        <time>2023-03-20T09:03:07Z</time>
      </trkpt>
      <trkpt lat="47.03628" lon="-1.15861">
        <ele>70</ele>
        <time>2023-03-20T09:03:33Z</time>
      </trkpt>
      <trkpt lat="47.03621" lon="-1.15891">
        <ele>69</ele>
        <time>2023-03-20T09:04:02Z</time>
      </trkpt>
      <trkpt lat="47.03615" lon="-1.15906">
        <ele>68</ele>
        <time>2023-03-20T09:04:18Z</time>
      </trkpt>
      <trkpt lat="47.03615" lon="-1.15995">
        <ele>69</ele>
        <time>2023-03-20T09:05:39Z</time>
      </trkpt>
      <trkpt lat="47.03611" lon="-1.16017">
        <ele>69</ele>
        <time>2023-03-20T09:05:59Z</time>
      </trkpt>
      <trkpt lat="47.03606" lon="-1.16069">
        <ele>71</ele>
        <time>2023-03-20T09:06:47Z</time>
      </trkpt>
      <trkpt lat="47.03606" lon="-1.1608">
        <ele>71</ele>
        <time>2023-03-20T09:06:57Z</time>
      </trkpt>
      <trkpt lat="47.03628" lon="-1.16206">
        <ele>74</ele>
        <time>2023-03-20T09:08:55Z</time>
      </trkpt>
      <trkpt lat="47.03631" lon="-1.16228">
        <ele>75</ele>
        <time>2023-03-20T09:09:16Z</time>
      </trkpt>
      <trkpt lat="47.03637" lon="-1.16343">
        <ele>76</ele>
        <time>2023-03-20T09:11:01Z</time>
      </trkpt>
      <trkpt lat="47.03636" lon="-1.16347">
        <ele>75</ele>
        <time>2023-03-20T09:11:05Z</time>
      </trkpt>
      <trkpt lat="47.03644" lon="-1.16435">
        <ele>75</ele>
        <time>2023-03-20T09:12:25Z</time>
      </trkpt>
      <trkpt lat="47.03671" lon="-1.1658">
        <ele>75</ele>
        <time>2023-03-20T09:14:42Z</time>
      </trkpt>
      <trkpt lat="47.03686" lon="-1.16687">
        <ele>76</ele>
        <time>2023-03-20T09:16:21Z</time>
      </trkpt>
      <trkpt lat="47.03709" lon="-1.16793">
        <ele>73</ele>
        <time>2023-03-20T09:18:03Z</time>
      </trkpt>
      <trkpt lat="47.03709" lon="-1.16824">
        <ele>72</ele>
        <time>2023-03-20T09:18:31Z</time>
      </trkpt>
      <trkpt lat="47.03704" lon="-1.16873">
        <ele>70</ele>
        <time>2023-03-20T09:19:16Z</time>
      </trkpt>
      <trkpt lat="47.03694" lon="-1.16914">
        <ele>69</ele>
        <time>2023-03-20T09:19:55Z</time>
      </trkpt>
      <trkpt lat="47.03691" lon="-1.16937">
        <ele>68</ele>
        <time>2023-03-20T09:20:17Z</time>
      </trkpt>
      <trkpt lat="47.03692" lon="-1.16972">
        <ele>68</ele>
        <time>2023-03-20T09:20:49Z</time>
      </trkpt>
      <trkpt lat="47.03703" lon="-1.17035">
        <ele>68</ele>
        <time>2023-03-20T09:21:48Z</time>
      </trkpt>
      <trkpt lat="47.03711" lon="-1.17065">
        <ele>68</ele>
        <time>2023-03-20T09:22:17Z</time>
      </trkpt>
      <trkpt lat="47.03711" lon="-1.17064">
        <ele>68</ele>
        <time>2023-03-20T09:22:18Z</time>
      </trkpt>
      <trkpt lat="47.03729" lon="-1.17121">
        <ele>67</ele>
        <time>2023-03-20T09:23:15Z</time>
      </trkpt>
      <trkpt lat="47.03747" lon="-1.17221">
        <ele>64</ele>
        <time>2023-03-20T09:24:49Z</time>
      </trkpt>
      <trkpt lat="47.03746" lon="-1.17246">
        <ele>63</ele>
        <time>2023-03-20T09:25:12Z</time>
      </trkpt>
      <trkpt lat="47.03734" lon="-1.1728">
        <ele>63</ele>
        <time>2023-03-20T09:25:47Z</time>
      </trkpt>
      <trkpt lat="47.03729" lon="-1.17301">
        <ele>64</ele>
        <time>2023-03-20T09:26:07Z</time>
      </trkpt>
      <trkpt lat="47.0373" lon="-1.17338">
        <ele>64</ele>
        <time>2023-03-20T09:26:41Z</time>
      </trkpt>
      <trkpt lat="47.03751" lon="-1.17445">
        <ele>67</ele>
        <time>2023-03-20T09:28:22Z</time>
      </trkpt>
      <trkpt lat="47.037" lon="-1.17484">
        <ele>65</ele>
        <time>2023-03-20T09:29:39Z</time>
      </trkpt>
      <trkpt lat="47.03653" lon="-1.1751">
        <ele>61</ele>
        <time>2023-03-20T09:30:46Z</time>
      </trkpt>
      <trkpt lat="47.03625" lon="-1.1752">
        <ele>57</ele>
        <time>2023-03-20T09:31:24Z</time>
      </trkpt>
      <trkpt lat="47.0358" lon="-1.17526">
        <ele>51</ele>
        <time>2023-03-20T09:32:24Z</time>
      </trkpt>
      <trkpt lat="47.03585" lon="-1.17546">
        <ele>51</ele>
        <time>2023-03-20T09:32:44Z</time>
      </trkpt>
      <trkpt lat="47.03591" lon="-1.17581">
        <ele>51</ele>
        <time>2023-03-20T09:33:17Z</time>
      </trkpt>
      <trkpt lat="47.03611" lon="-1.17645">
        <ele>53</ele>
        <time>2023-03-20T09:34:21Z</time>
      </trkpt>
      <trkpt lat="47.03612" lon="-1.17674">
        <ele>52</ele>
        <time>2023-03-20T09:34:47Z</time>
      </trkpt>
      <trkpt lat="47.03622" lon="-1.17714">
        <ele>52</ele>
        <time>2023-03-20T09:35:26Z</time>
      </trkpt>
      <trkpt lat="47.03621" lon="-1.17721">
        <ele>52</ele>
        <time>2023-03-20T09:35:32Z</time>
      </trkpt>
      <trkpt lat="47.03612" lon="-1.17743">
        <ele>49</ele>
        <time>2023-03-20T09:35:56Z</time>
      </trkpt>
      <trkpt lat="47.03619" lon="-1.17781">
        <ele>50</ele>
        <time>2023-03-20T09:36:32Z</time>
      </trkpt>
      <trkpt lat="47.03632" lon="-1.17829">
        <ele>51</ele>
        <time>2023-03-20T09:37:18Z</time>
      </trkpt>
      <trkpt lat="47.03634" lon="-1.17855">
        <ele>51</ele>
        <time>2023-03-20T09:37:42Z</time>
      </trkpt>
      <trkpt lat="47.03635" lon="-1.17886">
        <ele>50</ele>
        <time>2023-03-20T09:38:11Z</time>
      </trkpt>
      <trkpt lat="47.03633" lon="-1.17933">
        <ele>49</ele>
        <time>2023-03-20T09:38:53Z</time>
      </trkpt>
      <trkpt lat="47.03634" lon="-1.17955">
        <ele>48</ele>
        <time>2023-03-20T09:39:13Z</time>
      </trkpt>
      <trkpt lat="47.03634" lon="-1.17976">
        <ele>48</ele>
        <time>2023-03-20T09:39:32Z</time>
      </trkpt>
      <trkpt lat="47.03644" lon="-1.18053">
        <ele>49</ele>
        <time>2023-03-20T09:40:44Z</time>
      </trkpt>
      <trkpt lat="47.03662" lon="-1.18135">
        <ele>48</ele>
        <time>2023-03-20T09:42:02Z</time>
      </trkpt>
      <trkpt lat="47.03673" lon="-1.18193">
        <ele>47</ele>
        <time>2023-03-20T09:42:57Z</time>
      </trkpt>
      <trkpt lat="47.03693" lon="-1.1826">
        <ele>49</ele>
        <time>2023-03-20T09:44:03Z</time>
      </trkpt>
      <trkpt lat="47.037" lon="-1.1828">
        <ele>49</ele>
        <time>2023-03-20T09:44:24Z</time>
      </trkpt>
      <trkpt lat="47.03706" lon="-1.18309">
        <ele>49</ele>
        <time>2023-03-20T09:44:51Z</time>
      </trkpt>
      <trkpt lat="47.03704" lon="-1.18328">
        <ele>47</ele>
        <time>2023-03-20T09:45:09Z</time>
      </trkpt>
      <trkpt lat="47.03757" lon="-1.18393">
        <ele>52.5</ele>
        <time>2023-03-20T09:46:36Z</time>
      </trkpt>
      <trkpt lat="47.03869" lon="-1.18399">
        <ele>52.3</ele>
        <time>2023-03-20T09:46:36.336Z</time>
      </trkpt>
      <trkpt lat="47.04027" lon="-1.18616">
        <ele>75.2</ele>
        <time>2023-03-20T09:46:36.985Z</time>
      </trkpt>
      <trkpt lat="47.04219" lon="-1.18663">
        <ele>77.9</ele>
        <time>2023-03-20T09:46:37.569Z</time>
      </trkpt>
      <trkpt lat="47.04268" lon="-1.18749">
        <ele>79.3</ele>
        <time>2023-03-20T09:46:37.798Z</time>
      </trkpt>
      <trkpt lat="47.04145" lon="-1.18811">
        <ele>74.3</ele>
        <time>2023-03-20T09:46:38.188Z</time>
      </trkpt>
      <trkpt lat="47.04287" lon="-1.19028">
        <ele>75</ele>
        <time>2023-03-20T09:46:38.803Z</time>
      </trkpt>
      <trkpt lat="47.04167" lon="-1.19543">
        <ele>64.6</ele>
        <time>2023-03-20T09:46:39.917Z</time>
      </trkpt>
      <trkpt lat="47.04043" lon="-1.1974">
        <ele>39.5</ele>
        <time>2023-03-20T09:46:40.465Z</time>
      </trkpt>
      <trkpt lat="47.04067" lon="-1.20024">
        <ele>36.9</ele>
        <time>2023-03-20T09:46:41.050Z</time>
      </trkpt>
      <trkpt lat="47.04189" lon="-1.20253">
        <ele>32.1</ele>
        <time>2023-03-20T09:46:41.645Z</time>
      </trkpt>
      <trkpt lat="47.0416" lon="-1.20341">
        <ele>32.5</ele>
        <time>2023-03-20T09:46:41.845Z</time>
      </trkpt>
      <trkpt lat="47.04064" lon="-1.20264">
        <ele>33</ele>
        <time>2023-03-20T09:46:42.173Z</time>
      </trkpt>
      <trkpt lat="47.03907" lon="-1.20287">
        <ele>38.2</ele>
        <time>2023-03-20T09:46:42.647Z</time>
      </trkpt>
      <trkpt lat="47.03822" lon="-1.2044">
        <ele>46.2</ele>
        <time>2023-03-20T09:46:43.051Z</time>
      </trkpt>
      <trkpt lat="47.03675" lon="-1.20547">
        <ele>55.2</ele>
        <time>2023-03-20T09:46:43.544Z</time>
      </trkpt>
      <trkpt lat="47.03587" lon="-1.20474">
        <ele>68.6</ele>
        <time>2023-03-20T09:46:43.847Z</time>
      </trkpt>
      <trkpt lat="47.03367" lon="-1.2047">
        <ele>72.8</ele>
        <time>2023-03-20T09:46:44.508Z</time>
      </trkpt>
      <trkpt lat="47.03319" lon="-1.20103">
        <ele>72.4</ele>
        <time>2023-03-20T09:46:45.273Z</time>
      </trkpt>
      <trkpt lat="47.03243" lon="-1.19783">
        <ele>68.4</ele>
        <time>2023-03-20T09:46:45.967Z</time>
      </trkpt>
      <trkpt lat="47.03243" lon="-1.19545">
        <ele>68.4</ele>
        <time>2023-03-20T09:46:46.454Z</time>
      </trkpt>
      <trkpt lat="47.03379" lon="-1.1938">
        <ele>60.8</ele>
        <time>2023-03-20T09:46:46.984Z</time>
      </trkpt>
      <trkpt lat="47.03419" lon="-1.19399">
        <ele>61.1</ele>
        <time>2023-03-20T09:46:47.110Z</time>
      </trkpt>
      <trkpt lat="47.03525" lon="-1.19343">
        <ele>66.3</ele>
        <time>2023-03-20T09:46:47.448Z</time>
      </trkpt>
      <trkpt lat="47.03704" lon="-1.19311">
        <ele>69.1</ele>
        <time>2023-03-20T09:46:47.990Z</time>
      </trkpt>
      <trkpt lat="47.0373" lon="-1.19358">
        <ele>69.7</ele>
        <time>2023-03-20T09:46:48.114Z</time>
      </trkpt>
      <trkpt lat="47.03735" lon="-1.19298">
        <ele>68.6</ele>
        <time>2023-03-20T09:46:48.237Z</time>
      </trkpt>
      <trkpt lat="47.03774" lon="-1.19225">
        <ele>67.2</ele>
        <time>2023-03-20T09:46:48.427Z</time>
      </trkpt>
      <trkpt lat="47.03849" lon="-1.1926">
        <ele>56.1</ele>
        <time>2023-03-20T09:46:48.663Z</time>
      </trkpt>
      <trkpt lat="47.03876" lon="-1.19043">
        <ele>37.1</ele>
        <time>2023-03-20T09:46:49.115Z</time>
      </trkpt>
      <trkpt lat="47.03771" lon="-1.18848">
        <ele>40.3</ele>
        <time>2023-03-20T09:46:49.625Z</time>
      </trkpt>
      <trkpt lat="47.03682" lon="-1.18721">
        <ele>42.9</ele>
        <time>2023-03-20T09:46:50Z</time>
      </trkpt>
      <trkpt lat="47.03669" lon="-1.18562">
        <ele>38.3</ele>
        <time>2023-03-20T09:46:53Z</time>
      </trkpt>
      <trkpt lat="47.03601" lon="-1.18556">
        <ele>41.7</ele>
        <time>2023-03-20T09:47:53.070Z</time>
      </trkpt>
      <trkpt lat="47.03632" lon="-1.18458">
        <ele>45</ele>
        <time>2023-03-20T09:48:58Z</time>
      </trkpt>
      <trkpt lat="47.03623" lon="-1.18464">
        <ele>47</ele>
        <time>2023-03-20T09:49:12Z</time>
      </trkpt>
      <trkpt lat="47.03616" lon="-1.1847">
        <ele>48</ele>
        <time>2023-03-20T09:49:22Z</time>
      </trkpt>
      <trkpt lat="47.03606" lon="-1.1846">
        <ele>49</ele>
        <time>2023-03-20T09:49:39Z</time>
      </trkpt>
      <trkpt lat="47.036" lon="-1.18445">
        <ele>50</ele>
        <time>2023-03-20T09:49:54Z</time>
      </trkpt>
      <trkpt lat="47.03597" lon="-1.18411">
        <ele>52</ele>
        <time>2023-03-20T09:50:26Z</time>
      </trkpt>
      <trkpt lat="47.03596" lon="-1.18396">
        <ele>52</ele>
        <time>2023-03-20T09:50:39Z</time>
      </trkpt>
      <trkpt lat="47.036" lon="-1.18365">
        <ele>51</ele>
        <time>2023-03-20T09:51:08Z</time>
      </trkpt>
      <trkpt lat="47.03608" lon="-1.18337">
        <ele>49</ele>
        <time>2023-03-20T09:51:36Z</time>
      </trkpt>
      <trkpt lat="47.03611" lon="-1.18309">
        <ele>48</ele>
        <time>2023-03-20T09:52:01Z</time>
      </trkpt>
      <trkpt lat="47.0361" lon="-1.18293">
        <ele>48</ele>
        <time>2023-03-20T09:52:16Z</time>
      </trkpt>
      <trkpt lat="47.03598" lon="-1.1825">
        <ele>48</ele>
        <time>2023-03-20T09:52:58Z</time>
      </trkpt>
      <trkpt lat="47.0358" lon="-1.18214">
        <ele>48</ele>
        <time>2023-03-20T09:53:39Z</time>
      </trkpt>
      <trkpt lat="47.03552" lon="-1.18104">
        <ele>48</ele>
        <time>2023-03-20T09:55:26Z</time>
      </trkpt>
      <trkpt lat="47.0355" lon="-1.1809">
        <ele>48</ele>
        <time>2023-03-20T09:55:39Z</time>
      </trkpt>
      <trkpt lat="47.0355" lon="-1.18067">
        <ele>47</ele>
        <time>2023-03-20T09:56:00Z</time>
      </trkpt>
      <trkpt lat="47.03554" lon="-1.18056">
        <ele>47</ele>
        <time>2023-03-20T09:56:11Z</time>
      </trkpt>
      <trkpt lat="47.03553" lon="-1.18016">
        <ele>47</ele>
        <time>2023-03-20T09:56:47Z</time>
      </trkpt>
      <trkpt lat="47.03548" lon="-1.18012">
        <ele>47</ele>
        <time>2023-03-20T09:56:55Z</time>
      </trkpt>
      <trkpt lat="47.03547" lon="-1.18004">
        <ele>48</ele>
        <time>2023-03-20T09:57:02Z</time>
      </trkpt>
      <trkpt lat="47.03545" lon="-1.17984">
        <ele>48</ele>
        <time>2023-03-20T09:57:21Z</time>
      </trkpt>
      <trkpt lat="47.03555" lon="-1.17909">
        <ele>47</ele>
        <time>2023-03-20T09:58:30Z</time>
      </trkpt>
      <trkpt lat="47.03552" lon="-1.17884">
        <ele>48</ele>
        <time>2023-03-20T09:58:53Z</time>
      </trkpt>
      <trkpt lat="47.0354" lon="-1.17853">
        <ele>51</ele>
        <time>2023-03-20T09:59:26Z</time>
      </trkpt>
      <trkpt lat="47.03512" lon="-1.17715">
        <ele>52</ele>
        <time>2023-03-20T10:01:37Z</time>
      </trkpt>
      <trkpt lat="47.03508" lon="-1.17681">
        <ele>52</ele>
        <time>2023-03-20T10:02:08Z</time>
      </trkpt>
      <trkpt lat="47.03505" lon="-1.17668">
        <ele>52</ele>
        <time>2023-03-20T10:02:20Z</time>
      </trkpt>
      <trkpt lat="47.03488" lon="-1.17639">
        <ele>51</ele>
        <time>2023-03-20T10:02:55Z</time>
      </trkpt>
      <trkpt lat="47.03475" lon="-1.17625">
        <ele>52</ele>
        <time>2023-03-20T10:03:17Z</time>
      </trkpt>
      <trkpt lat="47.03453" lon="-1.17624">
        <ele>55</ele>
        <time>2023-03-20T10:03:46Z</time>
      </trkpt>
      <trkpt lat="47.03433" lon="-1.1764">
        <ele>59</ele>
        <time>2023-03-20T10:04:17Z</time>
      </trkpt>
      <trkpt lat="47.03369" lon="-1.17715">
        <ele>67</ele>
        <time>2023-03-20T10:06:06Z</time>
      </trkpt>
      <trkpt lat="47.03288" lon="-1.1779">
        <ele>73</ele>
        <time>2023-03-20T10:08:14Z</time>
      </trkpt>
      <trkpt lat="47.03273" lon="-1.17792">
        <ele>74</ele>
        <time>2023-03-20T10:08:34Z</time>
      </trkpt>
      <trkpt lat="47.03233" lon="-1.17789">
        <ele>75</ele>
        <time>2023-03-20T10:09:27Z</time>
      </trkpt>
      <trkpt lat="47.03201" lon="-1.17783">
        <ele>75</ele>
        <time>2023-03-20T10:10:10Z</time>
      </trkpt>
      <trkpt lat="47.03176" lon="-1.17788">
        <ele>75</ele>
        <time>2023-03-20T10:10:44Z</time>
      </trkpt>
      <trkpt lat="47.03155" lon="-1.17796">
        <ele>75</ele>
        <time>2023-03-20T10:11:13Z</time>
      </trkpt>
      <trkpt lat="47.03096" lon="-1.17827">
        <ele>73</ele>
        <time>2023-03-20T10:12:37Z</time>
      </trkpt>
      <trkpt lat="47.03086" lon="-1.17827">
        <ele>73</ele>
        <time>2023-03-20T10:12:50Z</time>
      </trkpt>
      <trkpt lat="47.03087" lon="-1.17802">
        <ele>74</ele>
        <time>2023-03-20T10:13:13Z</time>
      </trkpt>
      <trkpt lat="47.03087" lon="-1.17777">
        <ele>74</ele>
        <time>2023-03-20T10:13:35Z</time>
      </trkpt>
      <trkpt lat="47.0308" lon="-1.17631">
        <ele>76</ele>
        <time>2023-03-20T10:15:49Z</time>
      </trkpt>
      <trkpt lat="47.0308" lon="-1.17588">
        <ele>76</ele>
        <time>2023-03-20T10:16:28Z</time>
      </trkpt>
      <trkpt lat="47.03076" lon="-1.17557">
        <ele>77</ele>
        <time>2023-03-20T10:16:56Z</time>
      </trkpt>
      <trkpt lat="47.0306" lon="-1.17538">
        <ele>77</ele>
        <time>2023-03-20T10:17:24Z</time>
      </trkpt>
      <trkpt lat="47.03055" lon="-1.17518">
        <ele>77</ele>
        <time>2023-03-20T10:17:43Z</time>
      </trkpt>
      <trkpt lat="47.03053" lon="-1.17509">
        <ele>77</ele>
        <time>2023-03-20T10:17:52Z</time>
      </trkpt>
      <trkpt lat="47.03055" lon="-1.1747">
        <ele>78</ele>
        <time>2023-03-20T10:18:27Z</time>
      </trkpt>
      <trkpt lat="47.03055" lon="-1.17428">
        <ele>78</ele>
        <time>2023-03-20T10:19:06Z</time>
      </trkpt>
      <trkpt lat="47.03053" lon="-1.17392">
        <ele>79</ele>
        <time>2023-03-20T10:19:38Z</time>
      </trkpt>
      <trkpt lat="47.03047" lon="-1.17345">
        <ele>80</ele>
        <time>2023-03-20T10:20:22Z</time>
      </trkpt>
      <trkpt lat="47.03024" lon="-1.17205">
        <ele>82</ele>
        <time>2023-03-20T10:22:33Z</time>
      </trkpt>
      <trkpt lat="47.02998" lon="-1.17079">
        <ele>84</ele>
        <time>2023-03-20T10:24:33Z</time>
      </trkpt>
      <trkpt lat="47.02997" lon="-1.17058">
        <ele>84</ele>
        <time>2023-03-20T10:24:52Z</time>
      </trkpt>
      <trkpt lat="47.02998" lon="-1.16971">
        <ele>84</ele>
        <time>2023-03-20T10:26:11Z</time>
      </trkpt>
      <trkpt lat="47.02995" lon="-1.16951">
        <ele>84</ele>
        <time>2023-03-20T10:26:30Z</time>
      </trkpt>
      <trkpt lat="47.02942" lon="-1.16692">
        <ele>84</ele>
        <time>2023-03-20T10:30:36Z</time>
      </trkpt>
      <trkpt lat="47.02908" lon="-1.16488">
        <ele>83</ele>
        <time>2023-03-20T10:33:47Z</time>
      </trkpt>
      <trkpt lat="47.02902" lon="-1.16464">
        <ele>84</ele>
        <time>2023-03-20T10:34:10Z</time>
      </trkpt>
      <trkpt lat="47.02907" lon="-1.16442">
        <ele>84</ele>
        <time>2023-03-20T10:34:31Z</time>
      </trkpt>
      <trkpt lat="47.02916" lon="-1.1643">
        <ele>84</ele>
        <time>2023-03-20T10:34:47Z</time>
      </trkpt>
      <trkpt lat="47.0294" lon="-1.16405">
        <ele>84</ele>
        <time>2023-03-20T10:35:26Z</time>
      </trkpt>
      <trkpt lat="47.02964" lon="-1.16349">
        <ele>83</ele>
        <time>2023-03-20T10:36:27Z</time>
      </trkpt>
      <trkpt lat="47.03022" lon="-1.16247">
        <ele>80</ele>
        <time>2023-03-20T10:38:27Z</time>
      </trkpt>
      <trkpt lat="47.03031" lon="-1.16237">
        <ele>79</ele>
        <time>2023-03-20T10:38:42Z</time>
      </trkpt>
      <trkpt lat="47.0304" lon="-1.1623">
        <ele>78</ele>
        <time>2023-03-20T10:38:56Z</time>
      </trkpt>
      <trkpt lat="47.03056" lon="-1.16226">
        <ele>76</ele>
        <time>2023-03-20T10:39:18Z</time>
      </trkpt>
      <trkpt lat="47.03061" lon="-1.16222">
        <ele>75</ele>
        <time>2023-03-20T10:39:25Z</time>
      </trkpt>
      <trkpt lat="47.03064" lon="-1.16216">
        <ele>75</ele>
        <time>2023-03-20T10:39:32Z</time>
      </trkpt>
      <trkpt lat="47.03063" lon="-1.162">
        <ele>74</ele>
        <time>2023-03-20T10:39:47Z</time>
      </trkpt>
      <trkpt lat="47.03065" lon="-1.16188">
        <ele>73</ele>
        <time>2023-03-20T10:39:58Z</time>
      </trkpt>
      <trkpt lat="47.0308" lon="-1.16167">
        <ele>70</ele>
        <time>2023-03-20T10:40:26Z</time>
      </trkpt>
      <trkpt lat="47.03087" lon="-1.16147">
        <ele>68</ele>
        <time>2023-03-20T10:40:46Z</time>
      </trkpt>
      <trkpt lat="47.03084" lon="-1.16105">
        <ele>69</ele>
        <time>2023-03-20T10:41:24Z</time>
      </trkpt>
      <trkpt lat="47.03084" lon="-1.1608">
        <ele>69</ele>
        <time>2023-03-20T10:41:47Z</time>
      </trkpt>
      <trkpt lat="47.03095" lon="-1.16041">
        <ele>67</ele>
        <time>2023-03-20T10:42:26Z</time>
      </trkpt>
      <trkpt lat="47.03108" lon="-1.16012">
        <ele>64</ele>
        <time>2023-03-20T10:42:57Z</time>
      </trkpt>
      <trkpt lat="47.03115" lon="-1.16005">
        <ele>63</ele>
        <time>2023-03-20T10:43:08Z</time>
      </trkpt>
      <trkpt lat="47.03126" lon="-1.16002">
        <ele>61</ele>
        <time>2023-03-20T10:43:23Z</time>
      </trkpt>
      <trkpt lat="47.03135" lon="-1.15996">
        <ele>60</ele>
        <time>2023-03-20T10:43:37Z</time>
      </trkpt>
      <trkpt lat="47.03155" lon="-1.15965">
        <ele>56</ele>
        <time>2023-03-20T10:44:15Z</time>
      </trkpt>
      <trkpt lat="47.03169" lon="-1.15932">
        <ele>54</ele>
        <time>2023-03-20T10:44:51Z</time>
      </trkpt>
      <trkpt lat="47.03173" lon="-1.15908">
        <ele>54</ele>
        <time>2023-03-20T10:45:13Z</time>
      </trkpt>
      <trkpt lat="47.03178" lon="-1.15756">
        <ele>55</ele>
        <time>2023-03-20T10:47:32Z</time>
      </trkpt>
      <trkpt lat="47.03174" lon="-1.1573">
        <ele>54</ele>
        <time>2023-03-20T10:47:56Z</time>
      </trkpt>
      <trkpt lat="47.0317" lon="-1.15694">
        <ele>52</ele>
        <time>2023-03-20T10:48:29Z</time>
      </trkpt>
      <trkpt lat="47.03164" lon="-1.15657">
        <ele>50</ele>
        <time>2023-03-20T10:49:04Z</time>
      </trkpt>
      <trkpt lat="47.03159" lon="-1.15647">
        <ele>50</ele>
        <time>2023-03-20T10:49:15Z</time>
      </trkpt>
      <trkpt lat="47.03151" lon="-1.15637">
        <ele>51</ele>
        <time>2023-03-20T10:49:29Z</time>
      </trkpt>
      <trkpt lat="47.03145" lon="-1.15623">
        <ele>51</ele>
        <time>2023-03-20T10:49:44Z</time>
      </trkpt>
      <trkpt lat="47.03134" lon="-1.15591">
        <ele>50</ele>
        <time>2023-03-20T10:50:17Z</time>
      </trkpt>
      <trkpt lat="47.03124" lon="-1.15583">
        <ele>51</ele>
        <time>2023-03-20T10:50:32Z</time>
      </trkpt>
      <trkpt lat="47.03069" lon="-1.15567">
        <ele>57</ele>
        <time>2023-03-20T10:51:47Z</time>
      </trkpt>
      <trkpt lat="47.03063" lon="-1.15555">
        <ele>57</ele>
        <time>2023-03-20T10:52:00Z</time>
      </trkpt>
      <trkpt lat="47.03059" lon="-1.15542">
        <ele>56</ele>
        <time>2023-03-20T10:52:13Z</time>
      </trkpt>
      <trkpt lat="47.03055" lon="-1.15536">
        <ele>56</ele>
        <time>2023-03-20T10:52:21Z</time>
      </trkpt>
      <trkpt lat="47.03053" lon="-1.15528">
        <ele>55</ele>
        <time>2023-03-20T10:52:29Z</time>
      </trkpt>
      <trkpt lat="47.03048" lon="-1.15518">
        <ele>55</ele>
        <time>2023-03-20T10:52:40Z</time>
      </trkpt>
      <trkpt lat="47.03044" lon="-1.15507">
        <ele>54</ele>
        <time>2023-03-20T10:52:51Z</time>
      </trkpt>
      <trkpt lat="47.03034" lon="-1.15495">
        <ele>56</ele>
        <time>2023-03-20T10:53:08Z</time>
      </trkpt>
      <trkpt lat="47.03021" lon="-1.15485">
        <ele>59</ele>
        <time>2023-03-20T10:53:28Z</time>
      </trkpt>
      <trkpt lat="47.03014" lon="-1.15474">
        <ele>60</ele>
        <time>2023-03-20T10:53:42Z</time>
      </trkpt>
      <trkpt lat="47.03011" lon="-1.15454">
        <ele>61</ele>
        <time>2023-03-20T10:54:00Z</time>
      </trkpt>
      <trkpt lat="47.03011" lon="-1.15433">
        <ele>60</ele>
        <time>2023-03-20T10:54:19Z</time>
      </trkpt>
      <trkpt lat="47.03006" lon="-1.15386">
        <ele>60</ele>
        <time>2023-03-20T10:55:03Z</time>
      </trkpt>
      <trkpt lat="47.02996" lon="-1.15324">
        <ele>57</ele>
        <time>2023-03-20T10:56:01Z</time>
      </trkpt>
      <trkpt lat="47.02982" lon="-1.1526">
        <ele>50</ele>
        <time>2023-03-20T10:57:02Z</time>
      </trkpt>
      <trkpt lat="47.02972" lon="-1.15241">
        <ele>49</ele>
        <time>2023-03-20T10:57:24Z</time>
      </trkpt>
      <trkpt lat="47.02964" lon="-1.15213">
        <ele>48</ele>
        <time>2023-03-20T10:57:51Z</time>
      </trkpt>
      <trkpt lat="47.0295" lon="-1.15191">
        <ele>48</ele>
        <time>2023-03-20T10:58:19Z</time>
      </trkpt>
      <trkpt lat="47.02951" lon="-1.15156">
        <ele>46</ele>
        <time>2023-03-20T10:58:50Z</time>
      </trkpt>
      <trkpt lat="47.02946" lon="-1.15151">
        <ele>46</ele>
        <time>2023-03-20T10:58:59Z</time>
      </trkpt>
      <trkpt lat="47.02936" lon="-1.15151">
        <ele>47</ele>
        <time>2023-03-20T10:59:12Z</time>
      </trkpt>
      <trkpt lat="47.02919" lon="-1.15146">
        <ele>48</ele>
        <time>2023-03-20T10:59:35Z</time>
      </trkpt>
      <trkpt lat="47.02904" lon="-1.15146">
        <ele>48</ele>
        <time>2023-03-20T10:59:55Z</time>
      </trkpt>
      <trkpt lat="47.02895" lon="-1.1515">
        <ele>49</ele>
        <time>2023-03-20T11:00:08Z</time>
      </trkpt>
      <trkpt lat="47.02863" lon="-1.15133">
        <ele>50</ele>
        <time>2023-03-20T11:00:53Z</time>
      </trkpt>
      <trkpt lat="47.02795" lon="-1.15155">
        <ele>57</ele>
        <time>2023-03-20T11:02:26Z</time>
      </trkpt>
      <trkpt lat="47.02693" lon="-1.15149">
        <ele>68</ele>
        <time>2023-03-20T11:04:42Z</time>
      </trkpt>
      <trkpt lat="47.02573" lon="-1.15106">
        <ele>77</ele>
        <time>2023-03-20T11:07:27Z</time>
      </trkpt>
      <trkpt lat="47.02545" lon="-1.15083">
        <ele>79</ele>
        <time>2023-03-20T11:08:10Z</time>
      </trkpt>
      <trkpt lat="47.02507" lon="-1.15025">
        <ele>81</ele>
        <time>2023-03-20T11:09:23Z</time>
      </trkpt>
      <trkpt lat="47.02483" lon="-1.14995">
        <ele>82</ele>
        <time>2023-03-20T11:10:05Z</time>
      </trkpt>
      <trkpt lat="47.02435" lon="-1.14952">
        <ele>84</ele>
        <time>2023-03-20T11:11:20Z</time>
      </trkpt>
      <trkpt lat="47.02426" lon="-1.14939">
        <ele>84</ele>
        <time>2023-03-20T11:11:37Z</time>
      </trkpt>
      <trkpt lat="47.02394" lon="-1.1484">
        <ele>86</ele>
        <time>2023-03-20T11:13:17Z</time>
      </trkpt>
      <trkpt lat="47.02364" lon="-1.14776">
        <ele>86</ele>
        <time>2023-03-20T11:14:27Z</time>
      </trkpt>
      <trkpt lat="47.02343" lon="-1.14738">
        <ele>86</ele>
        <time>2023-03-20T11:15:12Z</time>
      </trkpt>
      <trkpt lat="47.0233" lon="-1.14733">
        <ele>87</ele>
        <time>2023-03-20T11:15:30Z</time>
      </trkpt>
      <trkpt lat="47.0227" lon="-1.1472">
        <ele>88</ele>
        <time>2023-03-20T11:16:51Z</time>
      </trkpt>
      <trkpt lat="47.02232" lon="-1.14647">
        <ele>89</ele>
        <time>2023-03-20T11:18:14Z</time>
      </trkpt>
      <trkpt lat="47.02079" lon="-1.14123">
        <ele>77</ele>
        <time>2023-03-20T11:26:53Z</time>
      </trkpt>
      <trkpt lat="47.0208" lon="-1.14096">
        <ele>77</ele>
        <time>2023-03-20T11:27:17Z</time>
      </trkpt>
      <trkpt lat="47.02085" lon="-1.14075">
        <ele>77</ele>
        <time>2023-03-20T11:27:38Z</time>
      </trkpt>
      <trkpt lat="47.02102" lon="-1.14046">
        <ele>76</ele>
        <time>2023-03-20T11:28:12Z</time>
      </trkpt>
      <trkpt lat="47.02153" lon="-1.13979">
        <ele>77</ele>
        <time>2023-03-20T11:29:44Z</time>
      </trkpt>
      <trkpt lat="47.02241" lon="-1.13837">
        <ele>76</ele>
        <time>2023-03-20T11:32:38Z</time>
      </trkpt>
      <trkpt lat="47.02248" lon="-1.13809">
        <ele>76</ele>
        <time>2023-03-20T11:33:06Z</time>
      </trkpt>
      <trkpt lat="47.02267" lon="-1.13809">
        <ele>75</ele>
        <time>2023-03-20T11:33:31Z</time>
      </trkpt>
      <trkpt lat="47.02283" lon="-1.13767">
        <ele>74</ele>
        <time>2023-03-20T11:34:15Z</time>
      </trkpt>
      <trkpt lat="47.02304" lon="-1.13736">
        <ele>72</ele>
        <time>2023-03-20T11:34:54Z</time>
      </trkpt>
      <trkpt lat="47.02322" lon="-1.13703">
        <ele>69</ele>
        <time>2023-03-20T11:35:33Z</time>
      </trkpt>
      <trkpt lat="47.02346" lon="-1.13627">
        <ele>62</ele>
        <time>2023-03-20T11:36:49Z</time>
      </trkpt>
      <trkpt lat="47.0232" lon="-1.13516">
        <ele>59</ele>
        <time>2023-03-20T11:38:36Z</time>
      </trkpt>
      <trkpt lat="47.02321" lon="-1.13486">
        <ele>56</ele>
        <time>2023-03-20T11:39:03Z</time>
      </trkpt>
      <trkpt lat="47.02316" lon="-1.13447">
        <ele>53</ele>
        <time>2023-03-20T11:39:39Z</time>
      </trkpt>
      <trkpt lat="47.0231" lon="-1.13424">
        <ele>51</ele>
        <time>2023-03-20T11:40:02Z</time>
      </trkpt>
      <trkpt lat="47.02286" lon="-1.13385">
        <ele>49</ele>
        <time>2023-03-20T11:40:49Z</time>
      </trkpt>
      <trkpt lat="47.02256" lon="-1.13366">
        <ele>49</ele>
        <time>2023-03-20T11:41:33Z</time>
      </trkpt>
      <trkpt lat="47.02251" lon="-1.13324">
        <ele>45</ele>
        <time>2023-03-20T11:42:12Z</time>
      </trkpt>
      <trkpt lat="47.0225" lon="-1.1323">
        <ele>45</ele>
        <time>2023-03-20T11:43:37Z</time>
      </trkpt>
      <trkpt lat="47.02245" lon="-1.13193">
        <ele>46</ele>
        <time>2023-03-20T11:44:12Z</time>
      </trkpt>
      <trkpt lat="47.02219" lon="-1.13108">
        <ele>46</ele>
        <time>2023-03-20T11:45:36Z</time>
      </trkpt>
      <trkpt lat="47.02192" lon="-1.13037">
        <ele>46</ele>
        <time>2023-03-20T11:46:50Z</time>
      </trkpt>
      <trkpt lat="47.02164" lon="-1.12975">
        <ele>46</ele>
        <time>2023-03-20T11:47:58Z</time>
      </trkpt>
      <trkpt lat="47.02148" lon="-1.12948">
        <ele>47</ele>
        <time>2023-03-20T11:48:31Z</time>
      </trkpt>
      <trkpt lat="47.02132" lon="-1.12862">
        <ele>49</ele>
        <time>2023-03-20T11:49:52Z</time>
      </trkpt>
      <trkpt lat="47.02125" lon="-1.12845">
        <ele>50</ele>
        <time>2023-03-20T11:50:10Z</time>
      </trkpt>
      <trkpt lat="47.02111" lon="-1.12821">
        <ele>52</ele>
        <time>2023-03-20T11:50:39Z</time>
      </trkpt>
      <trkpt lat="47.02106" lon="-1.12792">
        <ele>52</ele>
        <time>2023-03-20T11:51:06Z</time>
      </trkpt>
      <trkpt lat="47.02107" lon="-1.12755">
        <ele>52</ele>
        <time>2023-03-20T11:51:39Z</time>
      </trkpt>
      <trkpt lat="47.02122" lon="-1.12707">
        <ele>50</ele>
        <time>2023-03-20T11:52:27Z</time>
      </trkpt>
      <trkpt lat="47.02123" lon="-1.12662">
        <ele>50</ele>
        <time>2023-03-20T11:53:08Z</time>
      </trkpt>
      <trkpt lat="47.02135" lon="-1.12613">
        <ele>50</ele>
        <time>2023-03-20T11:53:56Z</time>
      </trkpt>
      <trkpt lat="47.02138" lon="-1.12501">
        <ele>52</ele>
        <time>2023-03-20T11:55:38Z</time>
      </trkpt>
      <trkpt lat="47.02134" lon="-1.12349">
        <ele>57</ele>
        <time>2023-03-20T11:57:56Z</time>
      </trkpt>
      <trkpt lat="47.02128" lon="-1.12285">
        <ele>57</ele>
        <time>2023-03-20T11:58:55Z</time>
      </trkpt>
      <trkpt lat="47.02092" lon="-1.12097">
        <ele>54</ele>
        <time>2023-03-20T12:01:53Z</time>
      </trkpt>
      <trkpt lat="47.02078" lon="-1.11995">
        <ele>52</ele>
        <time>2023-03-20T12:03:27Z</time>
      </trkpt>
      <trkpt lat="47.02058" lon="-1.11856">
        <ele>55</ele>
        <time>2023-03-20T12:05:36Z</time>
      </trkpt>
      <trkpt lat="47.02049" lon="-1.11829">
        <ele>56</ele>
        <time>2023-03-20T12:06:04Z</time>
      </trkpt>
      <trkpt lat="47.02033" lon="-1.11806">
        <ele>57</ele>
        <time>2023-03-20T12:06:34Z</time>
      </trkpt>
      <trkpt lat="47.01991" lon="-1.11713">
        <ele>54</ele>
        <time>2023-03-20T12:08:15Z</time>
      </trkpt>
      <trkpt lat="47.01948" lon="-1.11642">
        <ele>54</ele>
        <time>2023-03-20T12:09:42Z</time>
      </trkpt>
      <trkpt lat="47.01872" lon="-1.11546">
        <ele>50</ele>
        <time>2023-03-20T12:11:55Z</time>
      </trkpt>
      <trkpt lat="47.01861" lon="-1.11546">
        <ele>51</ele>
        <time>2023-03-20T12:12:10Z</time>
      </trkpt>
      <trkpt lat="47.01851" lon="-1.11568">
        <ele>51</ele>
        <time>2023-03-20T12:12:34Z</time>
      </trkpt>
      <trkpt lat="47.01834" lon="-1.11593">
        <ele>52</ele>
        <time>2023-03-20T12:13:06Z</time>
      </trkpt>
      <trkpt lat="47.0183" lon="-1.11611">
        <ele>54</ele>
        <time>2023-03-20T12:13:23Z</time>
      </trkpt>
      <trkpt lat="47.0182" lon="-1.11629">
        <ele>56</ele>
        <time>2023-03-20T12:13:45Z</time>
      </trkpt>
      <trkpt lat="47.01817" lon="-1.1164">
        <ele>57</ele>
        <time>2023-03-20T12:13:55Z</time>
      </trkpt>
      <trkpt lat="47.01813" lon="-1.11654">
        <ele>58</ele>
        <time>2023-03-20T12:14:09Z</time>
      </trkpt>
      <trkpt lat="47.01804" lon="-1.11677">
        <ele>60</ele>
        <time>2023-03-20T12:14:33Z</time>
      </trkpt>
      <trkpt lat="47.018" lon="-1.11685">
        <ele>62</ele>
        <time>2023-03-20T12:14:42Z</time>
      </trkpt>
      <trkpt lat="47.01796" lon="-1.11694">
        <ele>63</ele>
        <time>2023-03-20T12:14:52Z</time>
      </trkpt>
      <trkpt lat="47.01794" lon="-1.11697">
        <ele>63</ele>
        <time>2023-03-20T12:14:56Z</time>
      </trkpt>
      <trkpt lat="47.01792" lon="-1.117">
        <ele>64</ele>
        <time>2023-03-20T12:15:00Z</time>
      </trkpt>
      <trkpt lat="47.01789" lon="-1.11701">
        <ele>64</ele>
        <time>2023-03-20T12:15:04Z</time>
      </trkpt>
      <trkpt lat="47.01783" lon="-1.117">
        <ele>63</ele>
        <time>2023-03-20T12:15:12Z</time>
      </trkpt>
      <trkpt lat="47.01772" lon="-1.11696">
        <ele>63</ele>
        <time>2023-03-20T12:15:27Z</time>
      </trkpt>
      <trkpt lat="47.01705" lon="-1.11707">
        <ele>64</ele>
        <time>2023-03-20T12:16:57Z</time>
      </trkpt>
      <trkpt lat="47.0163" lon="-1.11688">
        <ele>63</ele>
        <time>2023-03-20T12:18:39Z</time>
      </trkpt>
      <trkpt lat="47.01621" lon="-1.11683">
        <ele>62</ele>
        <time>2023-03-20T12:18:51Z</time>
      </trkpt>
      <trkpt lat="47.01593" lon="-1.11641">
        <ele>61</ele>
        <time>2023-03-20T12:19:45Z</time>
      </trkpt>
      <trkpt lat="47.01583" lon="-1.11634">
        <ele>61</ele>
        <time>2023-03-20T12:20:00Z</time>
      </trkpt>
      <trkpt lat="47.01567" lon="-1.11633">
        <ele>61</ele>
        <time>2023-03-20T12:20:21Z</time>
      </trkpt>
      <trkpt lat="47.01549" lon="-1.11636">
        <ele>61</ele>
        <time>2023-03-20T12:20:45Z</time>
      </trkpt>
      <trkpt lat="47.01538" lon="-1.11645">
        <ele>61</ele>
        <time>2023-03-20T12:21:02Z</time>
      </trkpt>
      <trkpt lat="47.01528" lon="-1.11655">
        <ele>61</ele>
        <time>2023-03-20T12:21:18Z</time>
      </trkpt>
      <trkpt lat="47.0151" lon="-1.11689">
        <ele>62</ele>
        <time>2023-03-20T12:21:57Z</time>
      </trkpt>
      <trkpt lat="47.01503" lon="-1.11701">
        <ele>62</ele>
        <time>2023-03-20T12:22:12Z</time>
      </trkpt>
      <trkpt lat="47.01478" lon="-1.11766">
        <ele>62</ele>
        <time>2023-03-20T12:23:20Z</time>
      </trkpt>
      <trkpt lat="47.01456" lon="-1.11809">
        <ele>60</ele>
        <time>2023-03-20T12:24:09Z</time>
      </trkpt>
      <trkpt lat="47.01438" lon="-1.11837">
        <ele>58</ele>
        <time>2023-03-20T12:24:44Z</time>
      </trkpt>
      <trkpt lat="47.01425" lon="-1.1185">
        <ele>57</ele>
        <time>2023-03-20T12:25:05Z</time>
      </trkpt>
      <trkpt lat="47.01419" lon="-1.11853">
        <ele>57</ele>
        <time>2023-03-20T12:25:13Z</time>
      </trkpt>
      <trkpt lat="47.01416" lon="-1.11832">
        <ele>55</ele>
        <time>2023-03-20T12:25:33Z</time>
      </trkpt>
      <trkpt lat="47.01411" lon="-1.11821">
        <ele>55</ele>
        <time>2023-03-20T12:25:45Z</time>
      </trkpt>
      <trkpt lat="47.0142" lon="-1.118">
        <ele>56</ele>
        <time>2023-03-20T12:26:07Z</time>
      </trkpt>
      <trkpt lat="47.01427" lon="-1.11768">
        <ele>57</ele>
        <time>2023-03-20T12:26:38Z</time>
      </trkpt>
      <trkpt lat="47.01429" lon="-1.1174">
        <ele>58</ele>
        <time>2023-03-20T12:27:03Z</time>
      </trkpt>
      <trkpt lat="47.01432" lon="-1.11715">
        <ele>60</ele>
        <time>2023-03-20T12:27:26Z</time>
      </trkpt>
      <trkpt lat="47.01436" lon="-1.11677">
        <ele>63</ele>
        <time>2023-03-20T12:28:01Z</time>
      </trkpt>
      <trkpt lat="47.0144" lon="-1.11656">
        <ele>64</ele>
        <time>2023-03-20T12:28:21Z</time>
      </trkpt>
      <trkpt lat="47.01468" lon="-1.11591">
        <ele>65</ele>
        <time>2023-03-20T12:29:31Z</time>
      </trkpt>
      <trkpt lat="47.01506" lon="-1.11535">
        <ele>66</ele>
        <time>2023-03-20T12:30:43Z</time>
      </trkpt>
      <trkpt lat="47.01516" lon="-1.11504">
        <ele>68</ele>
        <time>2023-03-20T12:31:14Z</time>
      </trkpt>
      <trkpt lat="47.01517" lon="-1.11477">
        <ele>69</ele>
        <time>2023-03-20T12:31:39Z</time>
      </trkpt>
      <trkpt lat="47.01551" lon="-1.11374">
        <ele>66</ele>
        <time>2023-03-20T12:33:23Z</time>
      </trkpt>
      <trkpt lat="47.01575" lon="-1.11325">
        <ele>59</ele>
        <time>2023-03-20T12:34:18Z</time>
      </trkpt>
      <trkpt lat="47.01613" lon="-1.11345">
        <ele>59</ele>
        <time>2023-03-20T12:35:12Z</time>
      </trkpt>
      <trkpt lat="47.01652" lon="-1.11325">
        <ele>56</ele>
        <time>2023-03-20T12:36:07Z</time>
      </trkpt>
      <trkpt lat="47.01675" lon="-1.11332">
        <ele>56</ele>
        <time>2023-03-20T12:36:38Z</time>
      </trkpt>
      <trkpt lat="47.01727" lon="-1.11371">
        <ele>56</ele>
        <time>2023-03-20T12:37:56Z</time>
      </trkpt>
      <trkpt lat="47.01781" lon="-1.11391">
        <ele>54</ele>
        <time>2023-03-20T12:39:10Z</time>
        <extensions>
          <visugpx:TrkExtension xmlns:visugpx="https://www.visugpx.com/editgpx/">
            <visugpx:node>1</visugpx:node>
            </visugpx:TrkExtension>
        </extensions>
      </trkpt>
    </trkseg>
  </trk>
</gpx>